Terminal Aerodrome Forecast
Issued by NWS Newport/Morehead City, NC

Home | Current Version | Previous Version | Graphics & Text | Print | Product List | Glossary On
Versions: 1 2 3 4 5 6 7 8 9 10 11 12 13 14 15 16
000
FTUS42 KMHX 060520
TAFEWN
TAF
KEWN 060520Z 0606/0706 20005KT P6SM SCT250
     FM060800 19003KT 5SM BR SCT010
     FM061300 21007KT P6SM SCT035
     FM061700 20008KT P6SM VCTS SCT050CB
     FM070000 19004KT P6SM BKN250=

USA.gov is the U.S. government's official web portal to all federal, state and local government web resources and services.